Time;durP1;ratioP1;P1;durP2;ratioP2;P2;SDS_P1;SDS_P2;PMS_P1;PMS_P2;Temp;Humidity;BMP_temperature;BMP_pressure;BME280_temperature;BME280_humidity;BME280_pressure;Samples;Min_cycle;Max_cycle;Signal;HPM_P1;HPM_P2
2022/10/05 00:02:17;;;;;;;5.55;4.93;;;8.10;99.90;;;;;;5100920;28;20205;-85
2022/10/05 00:04:45;;;;;;;7.47;5.22;;;8.20;99.90;;;;;;5114051;28;20224;-85
2022/10/05 00:07:15;;;;;;;8.98;5.80;;;8.10;99.90;;;;;;5126809;28;20210;-85
2022/10/05 00:09:45;;;;;;;7.10;5.10;;;8.00;99.90;;;;;;5116460;27;20207;-85
2022/10/05 00:12:16;;;;;;;5.97;4.53;;;8.00;99.90;;;;;;5114762;28;20600;-85
2022/10/05 00:14:44;;;;;;;5.60;4.80;;;8.00;99.90;;;;;;5121849;28;20199;-85
2022/10/05 00:17:17;;;;;;;6.20;5.57;;;8.00;99.90;;;;;;5118900;28;20202;-85
2022/10/05 00:19:45;;;;;;;8.25;5.60;;;8.00;99.90;;;;;;5122798;27;20263;-85
2022/10/05 00:22:16;;;;;;;6.35;5.30;;;8.20;99.90;;;;;;5109306;28;20207;-86
2022/10/05 00:24:45;;;;;;;6.93;5.00;;;8.20;99.90;;;;;;5115893;28;20203;-85
2022/10/05 00:27:17;;;;;;;7.15;5.90;;;8.30;99.90;;;;;;5111019;28;20203;-88
2022/10/05 00:29:45;;;;;;;5.28;4.78;;;8.30;99.90;;;;;;5112788;27;20248;-86
2022/10/05 00:32:12;;;;;;;7.63;4.45;;;8.30;99.90;;;;;;5116818;28;20210;-85
2022/10/05 00:34:39;;;;;;;7.03;4.68;;;8.30;99.90;;;;;;5104196;28;20734;-85
2022/10/05 00:37:06;;;;;;;5.82;4.63;;;8.40;99.90;;;;;;5117670;28;20585;-85
2022/10/05 00:39:38;;;;;;;4.82;4.32;;;8.30;99.90;;;;;;5125118;27;20258;-85
2022/10/05 00:42:24;;;;;;;4.53;3.90;;;8.10;99.90;;;;;;5126721;27;20203;-85
2022/10/05 00:44:54;;;;;;;4.63;4.10;;;7.80;99.90;;;;;;5123501;27;20672;-86
2022/10/05 00:47:34;;;;;;;8.60;4.18;;;7.70;99.90;;;;;;5115295;27;20196;-86
2022/10/05 00:50:17;;;;;;;4.70;4.10;;;7.60;99.90;;;;;;5129347;27;20649;-85
2022/10/05 00:52:54;;;;;;;5.93;4.05;;;7.50;99.90;;;;;;5106920;28;20206;-86
2022/10/05 00:55:34;;;;;;;6.70;3.85;;;7.60;99.90;;;;;;5109330;27;20215;-85
2022/10/05 00:58:12;;;;;;;6.15;3.88;;;7.50;99.90;;;;;;5117266;27;20199;-85
2022/10/05 01:00:47;;;;;;;7.28;3.65;;;7.60;99.90;;;;;;5110601;27;20231;-85
2022/10/05 01:03:20;;;;;;;3.50;3.17;;;7.70;99.90;;;;;;5105293;27;20210;-85
2022/10/05 01:05:58;;;;;;;6.10;3.70;;;7.60;99.90;;;;;;5114195;27;20220;-85
2022/10/05 01:08:40;;;;;;;4.93;3.20;;;7.70;99.90;;;;;;5117174;27;20203;-85
2022/10/05 01:11:13;;;;;;;5.28;2.88;;;7.70;99.90;;;;;;5112006;27;20211;-85
2022/10/05 01:13:50;;;;;;;3.90;3.05;;;7.70;99.90;;;;;;5122029;27;20707;-86
2022/10/05 01:16:25;;;;;;;3.47;3.17;;;7.60;99.90;;;;;;5120379;27;20191;-85
2022/10/05 01:18:59;;;;;;;3.55;2.92;;;7.60;99.90;;;;;;5116753;27;20214;-88
2022/10/05 01:21:27;;;;;;;3.00;2.70;;;7.70;99.90;;;;;;5106591;27;20216;-85
2022/10/05 01:24:25;;;;;;;3.00;2.70;;;7.70;99.90;;;;;;5102537;28;20209;-86
2022/10/05 01:27:30;;;;;;;4.50;3.15;;;7.60;99.90;;;;;;5102472;27;20215;-85
2022/10/05 01:30:06;;;;;;;4.15;2.58;;;7.60;99.90;;;;;;5034525;28;20210;-85
2022/10/05 01:32:36;;;;;;;2.95;2.63;;;7.60;99.90;;;;;;5034111;28;20217;-86
2022/10/05 01:35:14;;;;;;;3.88;2.40;;;7.50;99.90;;;;;;5040461;28;20202;-84
2022/10/05 01:37:49;;;;;;;2.60;2.40;;;7.50;99.90;;;;;;5028731;28;20685;-85
2022/10/05 01:40:22;;;;;;;3.03;2.45;;;7.50;99.90;;;;;;5023541;28;20221;-87
2022/10/05 01:43:03;;;;;;;2.53;2.25;;;7.50;99.90;;;;;;5026081;28;20203;-85
2022/10/05 01:45:38;;;;;;;3.38;2.40;;;7.40;99.90;;;;;;5040119;28;20213;-85
2022/10/05 01:48:13;;;;;;;3.05;2.75;;;7.50;99.90;;;;;;5031553;28;20217;-85
2022/10/05 01:50:52;;;;;;;3.42;2.65;;;7.50;99.90;;;;;;5027372;28;20569;-86
2022/10/05 01:53:27;;;;;;;7.05;2.83;;;7.50;99.90;;;;;;5035195;28;20205;-85
2022/10/05 01:56:02;;;;;;;3.05;2.75;;;7.50;99.90;;;;;;5031498;28;20681;-86
2022/10/05 01:58:39;;;;;;;2.85;2.53;;;7.60;99.90;;;;;;5035839;28;20201;-86
2022/10/05 02:01:11;;;;;;;3.47;2.70;;;7.50;99.90;;;;;;5042549;28;20218;-85
2022/10/05 02:03:47;;;;;;;4.03;2.50;;;7.50;99.90;;;;;;5032860;28;20195;-85
2022/10/05 02:06:19;;;;;;;4.25;2.80;;;7.50;99.90;;;;;;5043343;28;20307;-85
2022/10/05 02:08:50;;;;;;;3.80;3.08;;;7.40;99.90;;;;;;5119685;27;20195;-85
2022/10/05 02:11:18;;;;;;;3.80;2.88;;;7.40;99.90;;;;;;5105559;27;20195;-85
2022/10/05 02:13:53;;;;;;;4.05;2.80;;;7.40;99.90;;;;;;5111468;27;20741;-85
2022/10/05 02:16:27;;;;;;;6.43;2.78;;;7.40;99.90;;;;;;5103808;28;20206;-85
2022/10/05 02:18:58;;;;;;;3.33;3.03;;;7.40;99.90;;;;;;5108880;27;20199;-85
2022/10/05 02:21:26;;;;;;;2.85;2.65;;;7.50;99.90;;;;;;5127425;27;20629;-86
2022/10/05 02:23:57;;;;;;;3.42;2.50;;;7.40;99.90;;;;;;5120935;27;20672;-85
2022/10/05 02:26:25;;;;;;;3.63;2.90;;;7.50;99.90;;;;;;5104502;27;20363;-85
2022/10/05 02:28:57;;;;;;;5.00;2.72;;;7.60;99.90;;;;;;5105598;27;20210;-86
2022/10/05 02:31:29;;;;;;;2.92;2.25;;;7.60;99.90;;;;;;5117514;27;20211;-85
2022/10/05 02:34:28;;;;;;;2.40;2.20;;;7.50;99.90;;;;;;5118610;27;20229;-85
2022/10/05 02:37:11;;;;;;;4.80;2.55;;;7.50;99.90;;;;;;5113484;27;20211;-86
2022/10/05 02:39:47;;;;;;;3.88;2.40;;;7.50;99.90;;;;;;5115819;27;20195;-85
2022/10/05 02:42:22;;;;;;;2.67;2.40;;;7.50;99.90;;;;;;5117854;27;20310;-85
2022/10/05 02:44:59;;;;;;;6.07;2.50;;;7.40;99.90;;;;;;5123495;27;20198;-85
2022/10/05 02:47:32;;;;;;;2.65;2.45;;;7.40;99.90;;;;;;5122418;27;20551;-86
2022/10/05 02:50:06;;;;;;;3.17;2.30;;;7.40;99.90;;;;;;5115416;27;20237;-85
2022/10/05 02:52:41;;;;;;;2.67;2.20;;;7.40;99.90;;;;;;5116909;27;20195;-85
2022/10/05 02:55:18;;;;;;;2.40;2.20;;;7.30;99.90;;;;;;5110552;27;21055;-86
2022/10/05 02:57:57;;;;;;;2.40;2.00;;;7.40;99.90;;;;;;5115088;27;20213;-85
2022/10/05 03:00:35;;;;;;;2.33;2.13;;;7.50;99.90;;;;;;5110138;28;20596;-85
2022/10/05 03:03:08;;;;;;;3.47;2.10;;;7.50;99.90;;;;;;5114005;28;20233;-85
2022/10/05 03:05:40;;;;;;;5.38;2.85;;;7.40;99.90;;;;;;5101454;28;20221;-86
2022/10/05 03:08:14;;;;;;;2.30;2.03;;;7.40;99.90;;;;;;5122640;27;20208;-85
2022/10/05 03:10:52;;;;;;;3.47;2.10;;;7.30;99.90;;;;;;5110059;27;20577;-85
2022/10/05 03:13:26;;;;;;;3.10;2.17;;;7.30;99.90;;;;;;5114241;27;20229;-85
2022/10/05 03:16:10;;;;;;;2.20;2.00;;;7.40;99.90;;;;;;5103713;28;20205;-86
2022/10/05 03:18:48;;;;;;;4.38;2.20;;;7.30;99.90;;;;;;5118203;27;20659;-86
2022/10/05 03:21:26;;;;;;;5.60;2.50;;;7.20;99.90;;;;;;5109819;27;20690;-85
2022/10/05 03:24:10;;;;;;;2.50;2.30;;;7.30;99.90;;;;;;5105894;27;20204;-85
2022/10/05 03:26:45;;;;;;;2.47;2.28;;;7.40;99.90;;;;;;5110427;27;20196;-85
2022/10/05 03:29:24;;;;;;;2.20;2.00;;;7.50;99.90;;;;;;5103450;27;20202;-85
2022/10/05 03:31:58;;;;;;;2.13;1.90;;;7.50;99.90;;;;;;5114350;27;20222;-85
2022/10/05 03:34:35;;;;;;;2.80;1.90;;;7.40;99.90;;;;;;5110113;27;20209;-85
2022/10/05 03:37:10;;;;;;;2.42;1.92;;;7.30;99.90;;;;;;5113890;27;20214;-85
2022/10/05 03:39:42;;;;;;;2.33;1.80;;;7.30;99.90;;;;;;5117462;27;20213;-86
2022/10/05 03:42:16;;;;;;;1.60;1.50;;;7.30;99.90;;;;;;5110758;28;20230;-85
2022/10/05 03:44:49;;;;;;;3.20;2.00;;;7.20;99.90;;;;;;5108001;27;20254;-86
2022/10/05 03:47:28;;;;;;;2.38;1.80;;;7.40;99.90;;;;;;5112021;28;20202;-86
2022/10/05 03:50:16;;;;;;;1.80;1.70;;;7.40;99.90;;;;;;5116243;27;20566;-85
2022/10/05 03:52:47;;;;;;;2.53;1.80;;;7.40;99.90;;;;;;5114304;27;20199;-85
2022/10/05 03:55:20;;;;;;;2.20;2.00;;;7.40;99.90;;;;;;5119659;27;20203;-86
2022/10/05 03:57:50;;;;;;;2.38;1.88;;;7.40;99.90;;;;;;5120105;27;20724;-85
2022/10/05 04:00:21;;;;;;;2.08;1.88;;;7.40;99.90;;;;;;5112514;27;20195;-85
2022/10/05 04:02:54;;;;;;;1.80;1.70;;;7.40;99.90;;;;;;5117339;27;20260;-85
2022/10/05 04:05:27;;;;;;;2.30;1.80;;;7.50;99.90;;;;;;5106245;28;20293;-85
2022/10/05 04:07:59;;;;;;;1.92;1.58;;;7.40;99.90;;;;;;5114735;28;20198;-85
2022/10/05 04:10:30;;;;;;;1.73;1.60;;;7.40;99.90;;;;;;5122597;27;20199;-85
2022/10/05 04:13:02;;;;;;;2.58;1.40;;;7.40;99.90;;;;;;5117659;28;20204;-85
2022/10/05 04:15:36;;;;;;;2.33;1.77;;;7.40;99.90;;;;;;5108654;28;20192;-85
2022/10/05 04:18:15;;;;;;;2.47;1.85;;;7.30;99.90;;;;;;5116665;27;20218;-86
2022/10/05 04:20:46;;;;;;;2.13;2.00;;;7.30;99.90;;;;;;5115791;27;20218;-85
2022/10/05 04:23:22;;;;;;;2.55;1.70;;;7.20;99.90;;;;;;5112541;28;20192;-85
2022/10/05 04:25:52;;;;;;;2.17;1.60;;;7.10;99.90;;;;;;5118922;27;20195;-86
2022/10/05 04:28:27;;;;;;;3.70;1.70;;;7.30;99.90;;;;;;5119670;27;20558;-85
2022/10/05 04:30:54;;;;;;;2.70;1.83;;;7.10;99.90;;;;;;5114420;27;20565;-85
2022/10/05 04:33:32;;;;;;;1.75;1.60;;;7.00;99.90;;;;;;5115100;28;20198;-85
2022/10/05 04:36:12;;;;;;;1.65;1.50;;;6.90;99.90;;;;;;5106528;28;20528;-85
2022/10/05 04:39:04;;;;;;;2.63;1.48;;;6.90;99.90;;;;;;5110323;28;20194;-85
2022/10/05 04:42:03;;;;;;;2.80;1.75;;;6.90;99.90;;;;;;5112912;28;20204;-85
2022/10/05 04:45:09;;;;;;;6.05;1.80;;;7.00;99.90;;;;;;5106549;28;20201;-85
2022/10/05 04:47:56;;;;;;;2.08;1.85;;;7.10;99.90;;;;;;5029851;28;20210;-85
2022/10/05 04:50:46;;;;;;;1.63;1.52;;;7.30;99.90;;;;;;5109436;27;20202;-85
2022/10/05 04:53:33;;;;;;;2.08;1.77;;;7.20;99.90;;;;;;5104372;28;20581;-86
2022/10/05 04:56:11;;;;;;;4.35;1.88;;;7.00;99.90;;;;;;5105613;28;20288;-86
2022/10/05 04:59:01;;;;;;;3.30;1.90;;;7.00;99.90;;;;;;5116432;28;20275;-85
2022/10/05 05:01:50;;;;;;;4.07;1.58;;;7.40;99.90;;;;;;5108419;28;20691;-87
2022/10/05 05:04:45;;;;;;;3.07;1.50;;;7.40;99.90;;;;;;5105397;28;20202;-86
2022/10/05 05:07:32;;;;;;;2.90;1.50;;;7.30;99.90;;;;;;5107548;28;20673;-86
2022/10/05 05:10:25;;;;;;;2.00;1.80;;;7.40;99.90;;;;;;5104385;28;20560;-86
2022/10/05 05:13:05;;;;;;;1.85;1.70;;;7.20;99.90;;;;;;5102969;27;20199;-87
2022/10/05 05:15:49;;;;;;;2.03;1.80;;;7.10;99.90;;;;;;5106208;28;20206;-86
2022/10/05 05:18:46;;;;;;;3.60;1.73;;;7.00;99.90;;;;;;5103696;28;20203;-86
2022/10/05 05:21:53;;;;;;;2.20;1.63;;;7.00;99.90;;;;;;5105656;28;20204;-86
2022/10/05 05:24:43;;;;;;;1.77;1.63;;;6.90;99.90;;;;;;5116756;28;20231;-86
2022/10/05 05:27:36;;;;;;;4.35;1.85;;;6.80;99.90;;;;;;5116139;27;20184;-87
2022/10/05 05:30:16;;;;;;;4.35;1.83;;;6.80;99.90;;;;;;5108269;27;20550;-86
2022/10/05 05:33:12;;;;;;;2.03;1.60;;;6.90;99.90;;;;;;5109049;28;20202;-86
2022/10/05 05:36:25;;;;;;;1.75;1.65;;;7.00;99.90;;;;;;5033806;28;20205;-86
2022/10/05 05:39:14;;;;;;;2.17;1.67;;;7.30;99.90;;;;;;5031452;28;20293;-87
2022/10/05 05:41:58;;;;;;;4.40;1.92;;;7.30;99.90;;;;;;5032121;28;20214;-86
2022/10/05 05:44:28;;;;;;;2.85;1.73;;;7.40;99.90;;;;;;5031339;28;20686;-86
2022/10/05 05:47:00;;;;;;;1.85;1.55;;;7.20;99.90;;;;;;5037704;28;20231;-87
2022/10/05 05:49:36;;;;;;;4.20;2.10;;;7.30;99.90;;;;;;5031499;28;20209;-87
2022/10/05 05:52:12;;;;;;;4.75;1.60;;;7.50;99.90;;;;;;5032369;28;20747;-87
2022/10/05 05:54:46;;;;;;;3.20;1.83;;;7.40;99.90;;;;;;5027147;28;20203;-87
2022/10/05 05:57:22;;;;;;;3.30;1.65;;;7.30;99.90;;;;;;5032540;28;20649;-87
2022/10/05 05:59:56;;;;;;;2.13;1.85;;;7.20;99.90;;;;;;5027183;28;20198;-86
2022/10/05 06:02:41;;;;;;;2.03;1.83;;;7.30;99.90;;;;;;5034412;28;20636;-86
2022/10/05 06:05:28;;;;;;;7.45;2.28;;;7.50;99.90;;;;;;5034669;28;20222;-86
2022/10/05 06:07:57;;;;;;;3.17;2.05;;;7.70;99.90;;;;;;5032532;28;20294;-85
2022/10/05 06:10:34;;;;;;;3.47;2.03;;;7.80;99.90;;;;;;5035893;28;20206;-86
2022/10/05 06:13:16;;;;;;;2.10;1.90;;;7.80;99.90;;;;;;5090719;27;20203;-86
2022/10/05 06:15:48;;;;;;;1.90;1.80;;;8.10;99.90;;;;;;5117487;27;20207;-86
2022/10/05 06:18:19;;;;;;;2.20;1.90;;;8.10;99.90;;;;;;5116694;28;20223;-87
2022/10/05 06:20:53;;;;;;;4.25;1.95;;;8.00;99.90;;;;;;5119176;27;20204;-87
2022/10/05 06:23:25;;;;;;;6.90;2.03;;;8.00;99.90;;;;;;5114398;28;20206;-88
2022/10/05 06:26:04;;;;;;;2.30;1.60;;;7.90;99.90;;;;;;5105821;27;20291;-87
2022/10/05 06:28:32;;;;;;;4.45;2.13;;;7.90;99.90;;;;;;5113436;27;20216;-88
2022/10/05 06:31:12;;;;;;;4.05;2.20;;;7.90;99.90;;;;;;5107545;27;20199;-88
2022/10/05 06:33:46;;;;;;;1.98;1.73;;;7.90;99.90;;;;;;5110582;27;20689;-88
2022/10/05 06:36:23;;;;;;;5.70;1.95;;;8.00;99.90;;;;;;5113644;27;20282;-88
2022/10/05 06:39:22;;;;;;;4.03;1.65;;;8.00;99.90;;;;;;5107387;27;20208;-87
2022/10/05 06:42:03;;;;;;;3.30;2.00;;;8.10;99.90;;;;;;5102395;27;20216;-88
2022/10/05 06:44:39;;;;;;;4.70;2.00;;;8.20;99.90;;;;;;5114160;27;20206;-88
2022/10/05 06:47:13;;;;;;;5.10;1.90;;;8.30;99.90;;;;;;5109714;27;20199;-88
2022/10/05 06:49:51;;;;;;;4.10;1.85;;;8.40;99.90;;;;;;5102631;28;20199;-87
2022/10/05 06:52:26;;;;;;;2.53;1.90;;;8.50;99.90;;;;;;5099419;28;20203;-86
2022/10/05 06:55:12;;;;;;;6.13;1.65;;;8.60;99.90;;;;;;5100032;27;20203;-86
2022/10/05 06:57:50;;;;;;;2.78;1.77;;;8.70;99.90;;;;;;5107068;27;20225;-86
2022/10/05 07:00:21;;;;;;;3.40;1.70;;;8.80;99.90;;;;;;5115537;27;20703;-85
2022/10/05 07:02:53;;;;;;;3.45;1.70;;;8.80;99.90;;;;;;5108648;28;20690;-85
2022/10/05 07:05:46;;;;;;;7.03;2.30;;;9.00;99.90;;;;;;5108858;28;20311;-86
2022/10/05 07:08:19;;;;;;;2.58;1.80;;;9.10;99.90;;;;;;5108729;28;20192;-86
2022/10/05 07:11:03;;;;;;;3.95;2.03;;;9.10;99.90;;;;;;5106361;28;20203;-86
2022/10/05 07:13:55;;;;;;;4.93;1.80;;;9.30;99.90;;;;;;5109643;28;20203;-85
2022/10/05 07:16:32;;;;;;;8.25;2.00;;;9.40;99.90;;;;;;5088473;28;20205;-85
2022/10/05 07:19:10;;;;;;;2.40;1.50;;;9.50;99.90;;;;;;5090023;28;20211;-85
2022/10/05 07:21:45;;;;;;;4.10;1.45;;;9.60;99.90;;;;;;5091412;28;20248;-86
2022/10/05 07:24:28;;;;;;;2.50;1.80;;;9.90;99.90;;;;;;5092826;28;20259;-85
2022/10/05 07:27:07;;;;;;;1.73;1.58;;;10.00;99.90;;;;;;5089680;28;20204;-86
2022/10/05 07:29:43;;;;;;;3.67;1.80;;;10.10;99.90;;;;;;5089986;28;20196;-85
2022/10/05 07:32:24;;;;;;;8.52;5.47;;;10.30;99.90;;;;;;5083985;28;20235;-85
2022/10/05 07:35:00;;;;;;;3.47;2.30;;;10.40;99.90;;;;;;5091089;28;20206;-86
2022/10/05 07:37:54;;;;;;;2.83;1.60;;;10.60;99.90;;;;;;5092350;28;20196;-86
2022/10/05 07:40:27;;;;;;;4.40;1.80;;;10.70;99.90;;;;;;5091073;28;20196;-85
2022/10/05 07:43:05;;;;;;;2.65;1.52;;;10.80;99.90;;;;;;5089723;28;20222;-85
2022/10/05 07:45:43;;;;;;;1.60;1.33;;;11.00;99.90;;;;;;5086242;28;20314;-85
2022/10/05 07:48:16;;;;;;;3.78;1.40;;;11.20;99.30;;;;;;5089832;28;20303;-85
2022/10/05 07:50:59;;;;;;;4.65;1.48;;;11.40;98.40;;;;;;5090555;28;20661;-87
2022/10/05 07:53:33;;;;;;;1.88;1.38;;;11.60;97.90;;;;;;5112351;27;20203;-85
2022/10/05 07:56:20;;;;;;;3.45;1.50;;;11.80;96.80;;;;;;5125046;27;20286;-85
2022/10/05 07:59:01;;;;;;;2.47;1.27;;;12.00;96.20;;;;;;5130214;27;20650;-85
2022/10/05 08:01:32;;;;;;;1.17;1.00;;;12.20;94.40;;;;;;5124126;27;20738;-85
2022/10/05 08:04:19;;;;;;;3.38;1.50;;;12.30;93.90;;;;;;5117061;28;20283;-85
2022/10/05 08:06:51;;;;;;;0.90;0.90;;;12.50;93.60;;;;;;5110533;28;20199;-85
2022/10/05 08:09:33;;;;;;;1.48;1.13;;;12.60;93.40;;;;;;5114821;28;20557;-86
2022/10/05 08:12:07;;;;;;;1.02;0.82;;;12.80;92.40;;;;;;5110138;28;20643;-86
2022/10/05 08:14:43;;;;;;;1.10;1.00;;;12.90;91.60;;;;;;5115888;28;20202;-86
2022/10/05 08:17:18;;;;;;;2.47;1.30;;;13.00;91.60;;;;;;5116962;28;20233;-86
2022/10/05 08:19:52;;;;;;;1.42;0.93;;;13.20;91.10;;;;;;5115195;28;20191;-86
2022/10/05 08:22:23;;;;;;;2.22;1.30;;;13.30;91.10;;;;;;5108310;28;20222;-86
2022/10/05 08:24:59;;;;;;;1.85;1.48;;;13.50;91.10;;;;;;5114181;28;20192;-86
2022/10/05 08:27:33;;;;;;;5.28;1.30;;;13.60;90.70;;;;;;5114950;28;20211;-86
2022/10/05 08:30:02;;;;;;;3.30;1.13;;;13.80;89.60;;;;;;5113568;28;20320;-87
2022/10/05 08:32:34;;;;;;;2.03;1.25;;;13.90;86.40;;;;;;5110520;28;20287;-86
2022/10/05 08:35:23;;;;;;;4.80;1.55;;;14.20;85.40;;;;;;5114983;28;20196;-86
2022/10/05 08:37:51;;;;;;;2.80;1.30;;;14.30;83.20;;;;;;5114935;28;20206;-87
2022/10/05 08:40:57;;;;;;;2.50;1.02;;;14.50;83.00;;;;;;5117619;28;20202;-86
2022/10/05 08:43:41;;;;;;;2.15;1.23;;;14.70;78.00;;;;;;5054644;28;20722;-87
2022/10/05 08:46:38;;;;;;;2.00;1.13;;;14.90;81.40;;;;;;5054391;28;20290;-87
2022/10/05 08:49:30;;;;;;;1.73;1.25;;;15.20;77.40;;;;;;5052011;28;20205;-87
2022/10/05 08:52:27;;;;;;;0.93;0.90;;;15.40;78.50;;;;;;5031582;28;20206;-87
2022/10/05 08:55:36;;;;;;;1.20;1.10;;;15.70;78.00;;;;;;5026335;28;20221;-87
2022/10/05 08:58:35;;;;;;;3.20;1.08;;;16.10;76.60;;;;;;4972256;28;20205;-87
2022/10/05 09:01:07;;;;;;;2.05;1.00;;;16.50;66.10;;;;;;4971633;28;20288;-87
2022/10/05 09:04:04;;;;;;;1.30;1.10;;;16.90;53.10;;;;;;4976014;28;20235;-87
2022/10/05 09:07:12;;;;;;;1.35;0.82;;;17.50;42.40;;;;;;4919570;29;20322;-84
2022/10/05 09:10:24;;;;;;;1.48;0.90;;;18.70;38.50;;;;;;4919227;29;20199;-85
2022/10/05 09:13:23;;;;;;;1.17;1.08;;;20.20;27.70;;;;;;4896811;29;20217;-83
2022/10/05 09:16:22;;;;;;;1.75;1.05;;;21.90;25.40;;;;;;4916678;29;20202;-85
2022/10/05 09:19:32;;;;;;;1.63;1.20;;;23.60;20.00;;;;;;4906274;29;20641;-85
2022/10/05 09:22:11;;;;;;;4.55;1.25;;;25.10;18.90;;;;;;4937995;29;20221;-85
2022/10/05 09:24:54;;;;;;;3.63;1.70;;;26.20;14.70;;;;;;4940327;29;20213;-85
2022/10/05 09:27:35;;;;;;;1.58;1.33;;;26.80;15.00;;;;;;4943653;29;20256;-85
2022/10/05 09:30:29;;;;;;;2.17;1.55;;;27.20;14.10;;;;;;5026446;28;20195;-86
2022/10/05 09:33:42;;;;;;;1.77;1.65;;;27.70;13.50;;;;;;5034084;28;20680;-86
2022/10/05 09:36:51;;;;;;;2.22;1.60;;;27.70;14.40;;;;;;5037848;28;20201;-86
2022/10/05 09:40:03;;;;;;;3.78;1.92;;;27.40;14.30;;;;;;5038597;28;20206;-86
2022/10/05 09:43:05;;;;;;;1.80;1.70;;;27.30;16.10;;;;;;5040180;28;20257;-85
2022/10/05 09:46:17;;;;;;;2.95;1.50;;;27.00;14.20;;;;;;5086206;28;20191;-84
2022/10/05 09:49:12;;;;;;;3.13;1.80;;;26.90;15.10;;;;;;5032064;28;20212;-86
2022/10/05 09:52:06;;;;;;;2.40;1.73;;;26.90;16.00;;;;;;5032689;28;20198;-86
2022/10/05 09:55:09;;;;;;;1.60;1.50;;;27.20;15.30;;;;;;5032013;28;20224;-86
2022/10/05 09:58:12;;;;;;;2.42;1.58;;;27.20;12.70;;;;;;5066815;28;20218;-85
2022/10/05 10:01:07;;;;;;;2.97;1.75;;;26.90;14.30;;;;;;5069935;28;20207;-86
2022/10/05 10:04:05;;;;;;;3.55;1.77;;;26.40;14.80;;;;;;5065581;28;20225;-86
2022/10/05 10:07:01;;;;;;;4.50;1.60;;;26.40;14.80;;;;;;5074184;28;20228;-86
2022/10/05 10:09:36;;;;;;;3.38;1.70;;;25.60;14.40;;;;;;5071118;28;20695;-85
2022/10/05 10:12:22;;;;;;;3.30;1.50;;;25.40;16.60;;;;;;5072276;28;20205;-85
2022/10/05 10:15:16;;;;;;;3.20;1.77;;;25.30;16.40;;;;;;5062694;28;20192;-85
2022/10/05 10:18:11;;;;;;;3.63;1.90;;;25.00;18.20;;;;;;5071811;28;20584;-85
2022/10/05 10:21:05;;;;;;;2.97;1.40;;;25.40;16.10;;;;;;5066067;28;20566;-83
2022/10/05 10:24:03;;;;;;;1.60;1.50;;;25.60;16.10;;;;;;5071786;28;20217;-83
2022/10/05 10:27:06;;;;;;;3.38;1.48;;;25.40;17.00;;;;;;5097051;27;20200;-86
2022/10/05 10:29:59;;;;;;;2.28;2.00;;;25.30;18.00;;;;;;5109625;28;20551;-83
2022/10/05 10:32:57;;;;;;;1.83;1.65;;;25.40;17.30;;;;;;5117872;27;20203;-83
2022/10/05 10:35:37;;;;;;;1.50;1.40;;;25.50;18.30;;;;;;5072179;28;20677;-82
2022/10/05 10:38:39;;;;;;;1.65;1.55;;;26.10;14.70;;;;;;5071275;28;20206;-82
2022/10/05 10:41:44;;;;;;;3.30;1.90;;;25.80;14.60;;;;;;5075298;28;20204;-82
2022/10/05 10:44:42;;;;;;;3.15;1.30;;;25.10;15.90;;;;;;5074686;28;20211;-82
2022/10/05 10:47:40;;;;;;;1.60;1.50;;;24.50;17.30;;;;;;5076629;28;20189;-82
2022/10/05 10:50:45;;;;;;;1.65;1.48;;;24.30;18.80;;;;;;5070238;28;20197;-82
2022/10/05 10:53:29;;;;;;;3.15;1.48;;;24.30;17.90;;;;;;5073130;28;20203;-82
2022/10/05 10:56:17;;;;;;;2.08;1.45;;;24.20;18.00;;;;;;5068904;28;20197;-82
2022/10/05 10:59:23;;;;;;;2.28;1.58;;;23.90;18.50;;;;;;5079695;28;20666;-81
2022/10/05 11:02:41;;;;;;;2.75;1.50;;;23.90;18.30;;;;;;5070887;28;20648;-85
2022/10/05 11:05:37;;;;;;;1.45;1.35;;;23.90;19.20;;;;;;5066308;28;20220;-82
2022/10/05 11:08:46;;;;;;;4.40;1.40;;;23.40;19.50;;;;;;4985350;28;20669;-82
2022/10/05 11:12:07;;;;;;;1.38;1.10;;;23.10;20.50;;;;;;4899852;29;20215;-80
2022/10/05 11:14:46;;;;;;;2.10;1.20;;;22.80;20.80;;;;;;4913381;29;20195;-79
2022/10/05 11:17:42;;;;;;;2.92;1.70;;;22.90;20.30;;;;;;4918241;29;20201;-81
2022/10/05 11:20:50;;;;;;;1.27;1.17;;;22.70;19.30;;;;;;4928975;29;20237;-81
2022/10/05 11:23:52;;;;;;;1.88;1.27;;;22.60;20.40;;;;;;4895499;29;20229;-84
2022/10/05 11:26:53;;;;;;;2.97;1.63;;;22.60;20.20;;;;;;4897017;29;20221;-83
2022/10/05 11:29:47;;;;;;;2.88;1.83;;;22.70;20.90;;;;;;4896739;29;20203;-84
2022/10/05 11:32:47;;;;;;;2.35;1.45;;;22.70;20.80;;;;;;4899437;29;20361;-83
2022/10/05 11:36:07;;;;;;;1.70;1.40;;;22.60;21.50;;;;;;4903177;29;20203;-83
2022/10/05 11:39:04;;;;;;;1.60;1.48;;;22.50;22.30;;;;;;4765508;30;20575;-83
2022/10/05 11:45:35;;;;;;;2.45;1.40;;;22.60;21.00;;;;;;4784507;29;20217;-83
2022/10/05 11:48:29;;;;;;;2.92;1.85;;;22.60;21.70;;;;;;4831076;29;20216;-83
2022/10/05 11:51:23;;;;;;;3.13;1.30;;;22.60;22.40;;;;;;4853143;29;20372;-83
2022/10/05 11:54:06;;;;;;;1.70;1.60;;;22.40;21.40;;;;;;4843269;29;20662;-84
2022/10/05 11:57:02;;;;;;;2.15;1.30;;;22.40;21.60;;;;;;4841510;29;20194;-83
2022/10/05 11:59:48;;;;;;;2.67;1.40;;;22.50;21.40;;;;;;4857676;29;20211;-83
2022/10/05 12:02:40;;;;;;;4.93;1.80;;;22.60;21.90;;;;;;4876712;29;20200;-83
2022/10/05 12:05:20;;;;;;;4.40;1.55;;;22.80;22.20;;;;;;4870014;29;20579;-83
2022/10/05 12:08:07;;;;;;;1.50;1.40;;;22.60;22.50;;;;;;4872404;29;20227;-83
2022/10/05 12:10:44;;;;;;;2.08;1.60;;;22.60;24.10;;;;;;4876892;29;20206;-83
2022/10/05 12:13:32;;;;;;;1.70;1.20;;;22.40;20.90;;;;;;4877771;29;20214;-83
2022/10/05 12:16:06;;;;;;;2.22;1.35;;;22.30;22.20;;;;;;5003278;28;20249;-84
2022/10/05 12:18:56;;;;;;;1.55;1.23;;;22.40;21.70;;;;;;5001473;28;20203;-84
2022/10/05 12:21:43;;;;;;;3.28;1.30;;;22.30;22.20;;;;;;5007094;28;20199;-84
2022/10/05 12:24:18;;;;;;;5.20;1.45;;;22.20;22.20;;;;;;5043306;28;20578;-84
2022/10/05 12:26:51;;;;;;;3.08;1.30;;;22.10;22.80;;;;;;5047313;28;20194;-83
2022/10/05 12:29:26;;;;;;;1.65;1.20;;;22.10;22.00;;;;;;5053453;28;20285;-83
2022/10/05 12:32:13;;;;;;;1.52;1.42;;;22.10;22.00;;;;;;5103575;28;20199;-83
2022/10/05 12:34:49;;;;;;;3.08;1.10;;;22.20;23.30;;;;;;5117491;28;20187;-83
2022/10/05 12:37:40;;;;;;;1.00;1.00;;;22.30;22.30;;;;;;5121952;27;20187;-83
2022/10/05 12:40:23;;;;;;;2.00;1.40;;;22.30;21.90;;;;;;5128505;27;20206;-84
2022/10/05 12:43:04;;;;;;;1.02;0.90;;;22.50;23.80;;;;;;5118662;28;20288;-83
2022/10/05 12:45:49;;;;;;;2.67;1.40;;;22.40;20.50;;;;;;5118422;28;20643;-84
2022/10/05 12:48:42;;;;;;;1.85;1.20;;;22.30;21.20;;;;;;5117384;27;20571;-83
2022/10/05 12:51:41;;;;;;;1.77;1.30;;;22.30;21.00;;;;;;5118343;28;20639;-83
2022/10/05 12:54:17;;;;;;;1.52;1.17;;;22.30;22.20;;;;;;5125609;27;20266;-83
2022/10/05 12:56:54;;;;;;;2.67;1.30;;;22.40;21.90;;;;;;5113128;28;20198;-83
2022/10/05 12:59:35;;;;;;;1.17;1.08;;;22.40;20.90;;;;;;5115837;28;20547;-84
2022/10/05 13:02:17;;;;;;;1.50;1.08;;;22.30;21.20;;;;;;5120965;28;20188;-83
2022/10/05 13:04:59;;;;;;;1.42;1.33;;;22.30;21.50;;;;;;5115987;28;20230;-83
2022/10/05 13:07:53;;;;;;;0.98;0.98;;;22.40;22.20;;;;;;5115191;28;20599;-83
2022/10/05 13:10:33;;;;;;;1.20;1.10;;;22.40;21.30;;;;;;5120179;28;20225;-83
2022/10/05 13:13:37;;;;;;;1.10;1.00;;;22.40;22.00;;;;;;5116570;28;20214;-83
2022/10/05 13:16:22;;;;;;;1.05;0.95;;;22.40;20.00;;;;;;5122898;27;20202;-83
2022/10/05 13:19:20;;;;;;;1.90;1.20;;;22.40;20.50;;;;;;5110129;28;20195;-83
2022/10/05 13:22:13;;;;;;;1.80;1.13;;;22.50;21.90;;;;;;5102967;28;20196;-83
2022/10/05 13:24:48;;;;;;;1.35;1.02;;;22.40;21.50;;;;;;5117781;27;20703;-83
2022/10/05 13:27:40;;;;;;;1.75;1.20;;;22.30;22.10;;;;;;5120399;27;20199;-83
2022/10/05 13:30:15;;;;;;;1.58;0.85;;;22.20;21.00;;;;;;5115369;28;20192;-83
2022/10/05 13:32:46;;;;;;;1.60;1.27;;;22.20;22.10;;;;;;5115656;28;20188;-84
2022/10/05 13:35:41;;;;;;;1.35;1.10;;;22.20;22.50;;;;;;5107025;28;20192;-83
2022/10/05 13:38:27;;;;;;;2.25;1.30;;;22.30;22.10;;;;;;5129175;27;20196;-84
2022/10/05 13:41:05;;;;;;;1.23;0.82;;;22.20;22.10;;;;;;5117450;28;20209;-84
2022/10/05 13:43:44;;;;;;;1.40;1.30;;;22.10;20.90;;;;;;5114934;28;20216;-83
2022/10/05 13:46:28;;;;;;;2.03;1.13;;;22.10;21.80;;;;;;5110518;28;20196;-84
2022/10/05 13:49:28;;;;;;;1.48;1.38;;;22.00;21.60;;;;;;5114624;28;20203;-86
2022/10/05 13:52:21;;;;;;;1.50;1.20;;;22.10;21.50;;;;;;5118797;27;20208;-85
2022/10/05 13:54:56;;;;;;;2.42;1.10;;;22.10;21.00;;;;;;5119484;27;20233;-86
2022/10/05 13:57:43;;;;;;;1.30;1.20;;;22.10;21.70;;;;;;5114485;28;20202;-85
2022/10/05 14:00:16;;;;;;;1.52;1.08;;;22.10;22.10;;;;;;5115904;28;20553;-85
2022/10/05 14:03:22;;;;;;;2.35;1.02;;;22.10;21.00;;;;;;5109200;28;20199;-85
2022/10/05 14:06:02;;;;;;;1.35;1.08;;;21.90;21.50;;;;;;5103609;28;20220;-85
2022/10/05 14:08:33;;;;;;;106.18;92.95;;;21.90;21.00;;;;;;5104022;28;20202;-86
2022/10/05 14:11:20;;;;;;;8.60;7.78;;;21.80;21.80;;;;;;5107070;28;20210;-86
2022/10/05 14:13:51;;;;;;;1.55;1.40;;;21.80;23.10;;;;;;5111990;28;20287;-85
2022/10/05 14:16:34;;;;;;;1.42;1.33;;;21.70;23.90;;;;;;5113157;28;20198;-85
2022/10/05 14:19:20;;;;;;;2.58;1.13;;;21.60;23.60;;;;;;5111031;28;20195;-86